Time;durP1;ratioP1;P1;durP2;ratioP2;P2;SDS_P1;SDS_P2;PMS_P1;PMS_P2;Temp;Humidity;BMP_temperature;BMP_pressure;BME280_temperature;BME280_humidity;BME280_pressure;Samples;Min_cycle;Max_cycle;Signal;HPM_P1;HPM_P2
2023/07/28 00:00:53;;;;;;;3.58;1.70;;;;;;;;;;5111489;28;20225;-82
2023/07/28 00:03:22;;;;;;;2.47;1.48;;;;;;;;;;5111202;28;20280;-82
2023/07/28 00:05:49;;;;;;;2.22;1.63;;;;;;;;;;5111112;28;20320;-83
2023/07/28 00:08:17;;;;;;;2.85;1.58;;;;;;;;;;5111283;28;20194;-82
2023/07/28 00:10:45;;;;;;;2.30;1.50;;;;;;;;;;5111209;28;20221;-82
2023/07/28 00:13:12;;;;;;;2.33;1.40;;;;;;;;;;5110913;28;20232;-84
2023/07/28 00:15:39;;;;;;;2.90;1.60;;;;;;;;;;5111166;28;20202;-82
2023/07/28 00:18:06;;;;;;;2.00;1.52;;;;;;;;;;5113445;28;20217;-82
2023/07/28 00:20:35;;;;;;;3.53;1.80;;;;;;;;;;5115494;28;20286;-83
2023/07/28 00:23:02;;;;;;;2.22;1.50;;;;;;;;;;5114867;28;20331;-83
2023/07/28 00:25:29;;;;;;;2.88;1.40;;;;;;;;;;5115125;28;20264;-82
2023/07/28 00:27:56;;;;;;;3.83;1.45;;;;;;;;;;5115216;28;20297;-81
2023/07/28 00:30:24;;;;;;;1.40;1.25;;;;;;;;;;5114910;28;20225;-82
2023/07/28 00:32:51;;;;;;;2.83;1.40;;;;;;;;;;5114976;28;20860;-82
2023/07/28 00:35:18;;;;;;;1.75;1.45;;;;;;;;;;5114665;28;20280;-82
2023/07/28 00:37:47;;;;;;;2.72;1.23;;;;;;;;;;5115110;28;20230;-82
2023/07/28 00:40:14;;;;;;;2.03;1.30;;;;;;;;;;5114847;28;20678;-82
2023/07/28 00:42:42;;;;;;;2.80;1.48;;;;;;;;;;5114890;28;20228;-82
2023/07/28 00:45:10;;;;;;;3.05;1.60;;;;;;;;;;5114764;28;20233;-82
2023/07/28 00:47:37;;;;;;;1.95;1.40;;;;;;;;;;5114605;28;20208;-82
2023/07/28 00:50:05;;;;;;;3.28;1.60;;;;;;;;;;5114501;28;20631;-82
2023/07/28 00:52:33;;;;;;;2.08;1.58;;;;;;;;;;5114509;28;20312;-83
2023/07/28 00:55:02;;;;;;;1.95;1.50;;;;;;;;;;5114306;28;20280;-82
2023/07/28 00:57:29;;;;;;;1.73;1.50;;;;;;;;;;5114066;28;20224;-82
2023/07/28 00:59:57;;;;;;;2.88;1.92;;;;;;;;;;5113931;28;20300;-83
2023/07/28 01:02:25;;;;;;;3.15;2.00;;;;;;;;;;5115024;28;20598;-82
2023/07/28 01:04:52;;;;;;;4.80;1.80;;;;;;;;;;5114184;28;20252;-82
2023/07/28 01:07:25;;;;;;;3.80;1.80;;;;;;;;;;5114120;28;20726;-82
2023/07/28 01:09:54;;;;;;;2.35;1.45;;;;;;;;;;5114960;28;20218;-82
2023/07/28 01:12:23;;;;;;;2.35;1.50;;;;;;;;;;5114487;28;20273;-82
2023/07/28 01:14:50;;;;;;;2.38;2.00;;;;;;;;;;5114141;28;20696;-82
2023/07/28 01:17:19;;;;;;;2.60;1.80;;;;;;;;;;5114436;28;20312;-82
2023/07/28 01:19:46;;;;;;;2.33;1.80;;;;;;;;;;5113932;28;20204;-82
2023/07/28 01:22:28;;;;;;;3.30;1.80;;;;;;;;;;5114023;28;20293;-82
2023/07/28 01:25:03;;;;;;;3.88;1.90;;;;;;;;;;5112133;27;20233;-82
2023/07/28 01:27:32;;;;;;;2.70;1.88;;;;;;;;;;5114312;28;20658;-82
2023/07/28 01:29:59;;;;;;;2.25;1.55;;;;;;;;;;5112975;28;20198;-82
2023/07/28 01:32:26;;;;;;;2.83;1.65;;;;;;;;;;5113781;28;20198;-82
2023/07/28 01:34:53;;;;;;;2.42;1.50;;;;;;;;;;5113398;28;20243;-82
2023/07/28 01:37:20;;;;;;;2.63;1.50;;;;;;;;;;5114079;28;20285;-82
2023/07/28 01:39:48;;;;;;;1.52;1.40;;;;;;;;;;5113532;28;20221;-82
2023/07/28 01:42:15;;;;;;;2.00;1.52;;;;;;;;;;5113531;28;20296;-82
2023/07/28 01:44:43;;;;;;;2.40;1.58;;;;;;;;;;5113458;28;20799;-81
2023/07/28 01:47:10;;;;;;;2.83;1.55;;;;;;;;;;5113319;28;20281;-83
2023/07/28 01:49:38;;;;;;;2.72;1.80;;;;;;;;;;5113487;28;20221;-81
2023/07/28 01:52:05;;;;;;;2.13;1.77;;;;;;;;;;5113315;28;20232;-82
2023/07/28 01:54:32;;;;;;;3.55;1.80;;;;;;;;;;5113525;28;20641;-82
2023/07/28 01:57:00;;;;;;;3.17;1.55;;;;;;;;;;5113623;28;20247;-82
2023/07/28 01:59:27;;;;;;;2.28;1.92;;;;;;;;;;5113167;28;20280;-82
2023/07/28 02:01:56;;;;;;;2.15;1.95;;;;;;;;;;5113091;28;20197;-81
2023/07/28 02:04:23;;;;;;;8.70;2.33;;;;;;;;;;5112967;28;20229;-82
2023/07/28 02:06:50;;;;;;;2.63;2.10;;;;;;;;;;5113204;28;20312;-82
2023/07/28 02:09:18;;;;;;;2.17;1.88;;;;;;;;;;5113032;28;20644;-82
2023/07/28 02:11:45;;;;;;;2.95;2.20;;;;;;;;;;5113295;28;20630;-82
2023/07/28 02:14:12;;;;;;;2.95;2.35;;;;;;;;;;5112998;28;20284;-83
2023/07/28 02:16:39;;;;;;;3.40;2.17;;;;;;;;;;5112686;28;20225;-82
2023/07/28 02:19:08;;;;;;;2.75;2.13;;;;;;;;;;5112835;28;20215;-82
2023/07/28 02:21:35;;;;;;;4.07;2.15;;;;;;;;;;5113133;28;20197;-82
2023/07/28 02:24:02;;;;;;;3.42;2.20;;;;;;;;;;5112934;28;20209;-82
2023/07/28 02:26:29;;;;;;;3.55;2.08;;;;;;;;;;5112944;28;20320;-83
2023/07/28 02:28:57;;;;;;;3.60;1.98;;;;;;;;;;5112687;28;20628;-82
2023/07/28 02:31:24;;;;;;;2.60;2.20;;;;;;;;;;5104320;28;20229;-82
2023/07/28 02:33:51;;;;;;;2.60;1.90;;;;;;;;;;5092392;28;20207;-82
2023/07/28 02:36:19;;;;;;;2.53;1.90;;;;;;;;;;5092663;28;20227;-82
2023/07/28 02:38:47;;;;;;;3.55;2.35;;;;;;;;;;5092535;28;20236;-82
2023/07/28 02:41:14;;;;;;;4.03;1.98;;;;;;;;;;5092252;28;20222;-82
2023/07/28 02:43:41;;;;;;;2.38;1.80;;;;;;;;;;5092236;28;20233;-82
2023/07/28 02:46:08;;;;;;;2.42;2.10;;;;;;;;;;5091620;28;20321;-83
2023/07/28 02:48:35;;;;;;;2.45;1.85;;;;;;;;;;5092387;28;20285;-83
2023/07/28 02:51:02;;;;;;;2.63;1.95;;;;;;;;;;5092195;28;20198;-82
2023/07/28 02:53:31;;;;;;;2.33;2.13;;;;;;;;;;5091626;28;20664;-82
2023/07/28 02:55:58;;;;;;;4.55;2.22;;;;;;;;;;5092411;28;20222;-83
2023/07/28 02:58:26;;;;;;;2.40;1.80;;;;;;;;;;5092073;28;20230;-82
2023/07/28 03:00:53;;;;;;;4.97;1.83;;;;;;;;;;5091329;28;20875;-82
2023/07/28 03:03:20;;;;;;;2.60;1.80;;;;;;;;;;5092279;28;20190;-82
2023/07/28 03:05:47;;;;;;;1.92;1.70;;;;;;;;;;5092023;28;20308;-82
2023/07/28 03:08:15;;;;;;;2.67;1.63;;;;;;;;;;5091740;28;20198;-82
2023/07/28 03:10:43;;;;;;;5.47;1.73;;;;;;;;;;5091639;28;20289;-82
2023/07/28 03:13:10;;;;;;;2.13;1.83;;;;;;;;;;5091675;28;20294;-82
2023/07/28 03:15:38;;;;;;;2.33;1.95;;;;;;;;;;5094047;28;20234;-82
2023/07/28 03:18:05;;;;;;;3.17;1.90;;;;;;;;;;5111978;28;20284;-82
2023/07/28 03:20:32;;;;;;;3.22;2.40;;;;;;;;;;5111943;28;20229;-83
2023/07/28 03:22:59;;;;;;;1.90;1.70;;;;;;;;;;5112218;28;20686;-83
2023/07/28 03:25:26;;;;;;;2.47;1.65;;;;;;;;;;5111972;28;20276;-82
2023/07/28 03:27:55;;;;;;;1.73;1.42;;;;;;;;;;5111716;28;20746;-82
2023/07/28 03:30:22;;;;;;;2.88;1.50;;;;;;;;;;5101155;28;20289;-83
2023/07/28 03:32:49;;;;;;;2.47;1.60;;;;;;;;;;5091491;28;20199;-82
2023/07/28 03:35:17;;;;;;;2.63;1.63;;;;;;;;;;5091196;28;20209;-83
2023/07/28 03:37:44;;;;;;;4.22;1.65;;;;;;;;;;5091427;28;20285;-81
2023/07/28 03:40:12;;;;;;;2.92;1.77;;;;;;;;;;5091240;28;20202;-82
2023/07/28 03:42:40;;;;;;;2.13;1.92;;;;;;;;;;5090180;28;20237;-82
2023/07/28 03:45:09;;;;;;;3.55;1.80;;;;;;;;;;5091275;28;20277;-82
2023/07/28 03:47:39;;;;;;;1.70;1.60;;;;;;;;;;5091217;28;20293;-83
2023/07/28 03:50:07;;;;;;;1.90;1.67;;;;;;;;;;5091161;28;20209;-83
2023/07/28 03:52:34;;;;;;;1.30;1.20;;;;;;;;;;5092477;28;20317;-82
2023/07/28 03:55:01;;;;;;;2.47;1.10;;;;;;;;;;5095312;28;20230;-82
2023/07/28 03:57:28;;;;;;;1.33;1.00;;;;;;;;;;5095034;28;20684;-82
2023/07/28 03:59:55;;;;;;;1.00;0.90;;;;;;;;;;5095003;28;20678;-83
2023/07/28 04:02:24;;;;;;;3.97;1.02;;;;;;;;;;5096003;28;20751;-83
2023/07/28 04:04:55;;;;;;;1.00;0.80;;;;;;;;;;5095553;28;20243;-82
2023/07/28 04:07:22;;;;;;;1.30;0.93;;;;;;;;;;5095181;28;20232;-82
2023/07/28 04:09:49;;;;;;;1.88;0.80;;;;;;;;;;5094835;28;20288;-82
2023/07/28 04:12:16;;;;;;;1.65;1.08;;;;;;;;;;5094852;28;20226;-82
2023/07/28 04:14:44;;;;;;;3.08;1.08;;;;;;;;;;5095599;28;20218;-82
2023/07/28 04:17:11;;;;;;;1.73;1.30;;;;;;;;;;5110406;28;20226;-82
2023/07/28 04:19:40;;;;;;;2.05;1.10;;;;;;;;;;5115453;28;20190;-83
2023/07/28 04:22:07;;;;;;;2.10;1.20;;;;;;;;;;5114705;28;20832;-83
2023/07/28 04:24:34;;;;;;;1.20;1.10;;;;;;;;;;5115148;28;20655;-83
2023/07/28 04:27:01;;;;;;;1.20;1.02;;;;;;;;;;5115251;28;20225;-82
2023/07/28 04:29:29;;;;;;;1.10;1.00;;;;;;;;;;5115247;28;20229;-83
2023/07/28 04:31:56;;;;;;;2.28;1.40;;;;;;;;;;5112060;28;20288;-82
2023/07/28 04:34:23;;;;;;;1.98;1.38;;;;;;;;;;5104861;28;20202;-82
2023/07/28 04:36:51;;;;;;;1.65;1.20;;;;;;;;;;5094766;28;20281;-83
2023/07/28 04:39:19;;;;;;;3.17;1.50;;;;;;;;;;5094918;28;20277;-82
2023/07/28 04:41:46;;;;;;;1.77;1.58;;;;;;;;;;5094424;28;20697;-81
2023/07/28 04:44:13;;;;;;;2.88;1.50;;;;;;;;;;5094518;28;20679;-82
2023/07/28 04:46:40;;;;;;;1.95;1.75;;;;;;;;;;5094172;28;20264;-82
2023/07/28 04:49:07;;;;;;;1.92;1.67;;;;;;;;;;5094176;28;20226;-82
2023/07/28 04:51:34;;;;;;;2.40;1.60;;;;;;;;;;5094461;28;20285;-81
2023/07/28 04:54:03;;;;;;;1.92;1.60;;;;;;;;;;5094572;28;20317;-83
2023/07/28 04:56:30;;;;;;;2.40;1.60;;;;;;;;;;5094178;28;20252;-82
2023/07/28 04:58:58;;;;;;;1.83;1.55;;;;;;;;;;5094289;28;20623;-82
2023/07/28 05:01:26;;;;;;;4.38;1.50;;;;;;;;;;5094136;28;20198;-82
2023/07/28 05:03:53;;;;;;;2.85;1.42;;;;;;;;;;5093860;28;20226;-82
2023/07/28 05:06:20;;;;;;;1.90;1.60;;;;;;;;;;5093920;28;20317;-81
2023/07/28 05:08:47;;;;;;;1.98;1.77;;;;;;;;;;5094052;28;20198;-81
2023/07/28 05:11:16;;;;;;;2.05;1.75;;;;;;;;;;5094138;28;20237;-82
2023/07/28 05:13:44;;;;;;;4.35;1.83;;;;;;;;;;5094103;28;20230;-80
2023/07/28 05:16:11;;;;;;;3.13;1.80;;;;;;;;;;5101068;28;20198;-81
2023/07/28 05:18:38;;;;;;;10.57;2.20;;;;;;;;;;5114339;28;20225;-81
2023/07/28 05:21:05;;;;;;;2.08;1.67;;;;;;;;;;5114104;28;20194;-81
2023/07/28 05:23:32;;;;;;;2.75;2.00;;;;;;;;;;5114211;28;20198;-82
2023/07/28 05:25:59;;;;;;;2.58;1.70;;;;;;;;;;5114191;28;20249;-81
2023/07/28 05:28:28;;;;;;;2.47;1.80;;;;;;;;;;5114214;28;20296;-81
2023/07/28 05:30:55;;;;;;;1.92;1.42;;;;;;;;;;5113867;28;20202;-81
2023/07/28 05:33:22;;;;;;;2.05;1.33;;;;;;;;;;5114028;28;20318;-80
2023/07/28 05:35:49;;;;;;;2.22;1.20;;;;;;;;;;5114521;28;20289;-81
2023/07/28 05:38:16;;;;;;;2.55;1.20;;;;;;;;;;5114922;28;20293;-81
2023/07/28 05:40:44;;;;;;;1.20;1.10;;;;;;;;;;5113509;28;20280;-82
2023/07/28 05:43:11;;;;;;;1.13;1.02;;;;;;;;;;5113603;28;20221;-82
2023/07/28 05:45:39;;;;;;;1.48;1.15;;;;;;;;;;5110500;28;20277;-81
2023/07/28 05:48:07;;;;;;;2.17;1.17;;;;;;;;;;5093479;28;20286;-80
2023/07/28 05:50:34;;;;;;;1.83;1.10;;;;;;;;;;5093628;28;20277;-81
2023/07/28 05:53:03;;;;;;;2.03;1.20;;;;;;;;;;5093393;28;20250;-80
2023/07/28 05:55:30;;;;;;;1.92;1.67;;;;;;;;;;5092812;28;20199;-81
2023/07/28 05:57:57;;;;;;;2.20;1.63;;;;;;;;;;5093563;28;20296;-81
2023/07/28 06:00:24;;;;;;;2.60;1.70;;;;;;;;;;5092854;28;20233;-81
2023/07/28 06:02:53;;;;;;;1.63;1.50;;;;;;;;;;5093109;28;20290;-81
2023/07/28 06:05:20;;;;;;;3.15;1.92;;;;;;;;;;5094264;28;20293;-81
2023/07/28 06:07:47;;;;;;;2.25;1.70;;;;;;;;;;5113748;28;20284;-81
2023/07/28 06:10:15;;;;;;;2.80;1.35;;;;;;;;;;5113419;28;20232;-84
2023/07/28 06:12:42;;;;;;;1.70;1.27;;;;;;;;;;5113302;28;20289;-83
2023/07/28 06:15:09;;;;;;;2.60;1.30;;;;;;;;;;5112857;28;20194;-83
2023/07/28 06:17:37;;;;;;;2.00;1.52;;;;;;;;;;5112870;28;20304;-82
2023/07/28 06:20:06;;;;;;;1.65;1.55;;;;;;;;;;5103645;28;20298;-81
2023/07/28 06:22:33;;;;;;;5.50;1.65;;;;;;;;;;5109386;28;20229;-82
2023/07/28 06:25:00;;;;;;;1.63;1.40;;;;;;;;;;5099675;28;20713;-81
2023/07/28 06:27:28;;;;;;;1.90;1.60;;;;;;;;;;5112492;28;20276;-82
2023/07/28 06:29:55;;;;;;;1.60;1.50;;;;;;;;;;5113142;27;20202;-81
2023/07/28 06:32:23;;;;;;;2.40;1.80;;;;;;;;;;5112402;28;20773;-82
2023/07/28 06:34:51;;;;;;;2.38;1.75;;;;;;;;;;5113215;28;20243;-80
2023/07/28 06:37:20;;;;;;;2.05;1.80;;;;;;;;;;5112225;28;20190;-81
2023/07/28 06:39:47;;;;;;;2.65;1.60;;;;;;;;;;5112404;28;20292;-81
2023/07/28 06:42:16;;;;;;;1.98;1.58;;;;;;;;;;5107444;28;20293;-82
2023/07/28 06:44:43;;;;;;;2.05;1.35;;;;;;;;;;5112778;28;20198;-83
2023/07/28 06:47:10;;;;;;;1.60;1.30;;;;;;;;;;5112294;28;20225;-81
2023/07/28 06:49:38;;;;;;;3.38;1.27;;;;;;;;;;5112927;28;20197;-81
2023/07/28 06:52:05;;;;;;;2.13;1.00;;;;;;;;;;5112090;28;20289;-81
2023/07/28 06:54:34;;;;;;;1.85;1.00;;;;;;;;;;5112400;28;20271;-81
2023/07/28 06:57:01;;;;;;;1.15;0.95;;;;;;;;;;5112110;28;20726;-81
2023/07/28 06:59:28;;;;;;;0.88;0.77;;;;;;;;;;5112063;28;20198;-81
2023/07/28 07:01:55;;;;;;;1.63;1.00;;;;;;;;;;5111957;28;20753;-82
2023/07/28 07:04:23;;;;;;;2.15;0.98;;;;;;;;;;5112282;28;20204;-81
2023/07/28 07:06:50;;;;;;;0.90;0.70;;;;;;;;;;5111574;28;20316;-81
2023/07/28 07:09:17;;;;;;;2.10;0.80;;;;;;;;;;5112316;28;20250;-82
2023/07/28 07:11:46;;;;;;;1.38;0.90;;;;;;;;;;5111696;28;20618;-81
2023/07/28 07:14:14;;;;;;;2.05;1.00;;;;;;;;;;5111933;28;20220;-82
2023/07/28 07:16:41;;;;;;;3.28;0.90;;;;;;;;;;5109279;28;20551;-82
2023/07/28 07:19:10;;;;;;;3.60;1.13;;;;;;;;;;5109686;28;20231;-83
2023/07/28 07:21:38;;;;;;;3.33;1.30;;;;;;;;;;5110661;28;20201;-82
2023/07/28 07:24:05;;;;;;;1.48;1.17;;;;;;;;;;5110495;28;20216;-82
2023/07/28 07:26:32;;;;;;;2.63;1.40;;;;;;;;;;5110784;28;20756;-82
2023/07/28 07:29:01;;;;;;;2.40;1.30;;;;;;;;;;5109309;28;20237;-83
2023/07/28 07:31:28;;;;;;;1.85;1.30;;;;;;;;;;5108493;28;20270;-82
2023/07/28 07:33:55;;;;;;;1.40;1.20;;;;;;;;;;5110241;28;20658;-81
2023/07/28 07:36:22;;;;;;;2.80;1.42;;;;;;;;;;5111299;28;20296;-82
2023/07/28 07:38:50;;;;;;;3.88;1.85;;;;;;;;;;5108154;28;20201;-84
2023/07/28 07:41:19;;;;;;;2.20;1.67;;;;;;;;;;5091482;28;20264;-84
2023/07/28 07:43:47;;;;;;;3.55;1.80;;;;;;;;;;5111504;28;20250;-82
2023/07/28 07:46:16;;;;;;;2.20;1.98;;;;;;;;;;5110585;28;20194;-84
2023/07/28 07:48:44;;;;;;;1.98;1.77;;;;;;;;;;5110047;28;20221;-84
2023/07/28 07:51:11;;;;;;;2.40;1.90;;;;;;;;;;5092849;28;20514;-80
2023/07/28 07:53:38;;;;;;;1.95;1.77;;;;;;;;;;5109837;28;20240;-84
2023/07/28 07:56:07;;;;;;;2.28;1.70;;;;;;;;;;5111528;28;20670;-83
2023/07/28 07:58:34;;;;;;;2.83;1.83;;;;;;;;;;5111112;28;20859;-83
2023/07/28 08:01:01;;;;;;;4.07;1.70;;;;;;;;;;5111914;28;20201;-83
2023/07/28 08:03:31;;;;;;;4.40;1.48;;;;;;;;;;5111462;28;20297;-83
2023/07/28 08:05:59;;;;;;;1.70;1.40;;;;;;;;;;5111496;28;20246;-82
2023/07/28 08:08:27;;;;;;;1.80;1.70;;;;;;;;;;5111485;28;20595;-83
2023/07/28 08:10:54;;;;;;;1.80;1.67;;;;;;;;;;5096652;28;20206;-83
2023/07/28 08:13:21;;;;;;;2.38;1.38;;;;;;;;;;5100837;28;20300;-82
2023/07/28 08:15:49;;;;;;;1.95;1.60;;;;;;;;;;5111353;28;20288;-82
2023/07/28 08:18:16;;;;;;;2.13;1.50;;;;;;;;;;5111760;28;20212;-83
2023/07/28 08:20:45;;;;;;;1.40;1.30;;;;;;;;;;5111054;28;20198;-82
2023/07/28 08:23:12;;;;;;;2.03;1.35;;;;;;;;;;5111493;28;20228;-82
2023/07/28 08:25:39;;;;;;;1.80;1.33;;;;;;;;;;5111247;28;20202;-81
2023/07/28 08:28:06;;;;;;;1.45;1.08;;;;;;;;;;5111683;28;20232;-81
2023/07/28 08:30:34;;;;;;;1.83;0.90;;;;;;;;;;5111694;28;20281;-81
2023/07/28 08:33:02;;;;;;;2.75;1.10;;;;;;;;;;5111291;28;20198;-81
2023/07/28 08:35:29;;;;;;;1.20;1.05;;;;;;;;;;5110922;28;20194;-82
2023/07/28 08:37:57;;;;;;;2.90;1.10;;;;;;;;;;5111606;28;20723;-81
2023/07/28 08:40:27;;;;;;;3.25;1.27;;;;;;;;;;5115227;28;20198;-81
2023/07/28 08:42:55;;;;;;;4.22;2.20;;;;;;;;;;5115022;28;20284;-81
2023/07/28 08:45:23;;;;;;;8.25;2.40;;;;;;;;;;5115181;28;20266;-82
2023/07/28 08:47:50;;;;;;;3.78;1.30;;;;;;;;;;5114704;28;20229;-82
2023/07/28 08:50:18;;;;;;;1.38;0.80;;;;;;;;;;5114997;28;20233;-82
2023/07/28 08:52:45;;;;;;;1.80;0.75;;;;;;;;;;5114916;28;20232;-81
2023/07/28 08:55:14;;;;;;;3.13;0.75;;;;;;;;;;5115142;28;20263;-81
2023/07/28 08:57:41;;;;;;;1.60;0.52;;;;;;;;;;5114860;28;20220;-82
2023/07/28 09:00:11;;;;;;;1.58;0.70;;;;;;;;;;5114807;28;20205;-82
2023/07/28 09:02:38;;;;;;;2.00;0.70;;;;;;;;;;5114899;28;20193;-84
2023/07/28 09:05:05;;;;;;;2.20;0.70;;;;;;;;;;5114963;28;20221;-84
2023/07/28 09:07:36;;;;;;;3.72;0.63;;;;;;;;;;5114369;28;20312;-83
2023/07/28 09:10:04;;;;;;;0.82;0.60;;;;;;;;;;5114456;28;20205;-84
2023/07/28 09:12:34;;;;;;;2.10;0.70;;;;;;;;;;5114602;27;20229;-83
2023/07/28 09:15:01;;;;;;;1.77;0.70;;;;;;;;;;5114581;28;20198;-85
2023/07/28 09:17:28;;;;;;;1.80;0.60;;;;;;;;;;5114533;28;20205;-83
2023/07/28 09:19:56;;;;;;;2.90;0.68;;;;;;;;;;5114645;28;20198;-84
2023/07/28 09:22:24;;;;;;;0.40;0.40;;;;;;;;;;5114347;28;20285;-82
2023/07/28 09:24:52;;;;;;;2.47;0.55;;;;;;;;;;5114773;28;20288;-83
2023/07/28 09:27:23;;;;;;;0.77;0.52;;;;;;;;;;5114351;28;20225;-83
2023/07/28 09:29:53;;;;;;;2.25;0.73;;;;;;;;;;5114452;28;20194;-83
2023/07/28 09:32:30;;;;;;;1.15;0.60;;;;;;;;;;5114203;28;20200;-82
2023/07/28 09:35:08;;;;;;;1.85;0.68;;;;;;;;;;5114103;28;20221;-83
2023/07/28 09:37:36;;;;;;;1.00;0.70;;;;;;;;;;5113969;28;20205;-84
2023/07/28 09:40:06;;;;;;;1.38;0.60;;;;;;;;;;5114533;28;20243;-84
2023/07/28 09:42:33;;;;;;;1.85;0.70;;;;;;;;;;5114250;27;20607;-83
2023/07/28 09:45:02;;;;;;;1.20;0.70;;;;;;;;;;5113817;27;20254;-83
2023/07/28 09:47:30;;;;;;;1.52;0.60;;;;;;;;;;5113380;28;20729;-83
2023/07/28 09:49:59;;;;;;;1.38;0.80;;;;;;;;;;5113331;28;20221;-84
2023/07/28 09:52:27;;;;;;;0.98;0.70;;;;;;;;;;5113750;28;20674;-85
2023/07/28 09:54:56;;;;;;;0.73;0.70;;;;;;;;;;5114060;28;20623;-85
2023/07/28 09:57:25;;;;;;;0.60;0.60;;;;;;;;;;5114201;28;20666;-84
2023/07/28 09:59:56;;;;;;;0.70;0.70;;;;;;;;;;5113575;28;20688;-84
2023/07/28 10:02:25;;;;;;;2.38;0.60;;;;;;;;;;5113479;28;20250;-85
2023/07/28 10:04:52;;;;;;;1.35;0.60;;;;;;;;;;5114021;28;20194;-85
2023/07/28 10:07:19;;;;;;;0.93;0.88;;;;;;;;;;5113455;28;20240;-84
2023/07/28 10:09:47;;;;;;;1.38;1.05;;;;;;;;;;5113666;28;20198;-85
2023/07/28 10:12:19;;;;;;;1.00;0.90;;;;;;;;;;5113706;28;20349;-84
2023/07/28 10:14:46;;;;;;;1.63;0.95;;;;;;;;;;5113438;28;20204;-85
2023/07/28 10:17:17;;;;;;;1.42;0.80;;;;;;;;;;5113626;28;20225;-85
2023/07/28 10:19:46;;;;;;;0.93;0.82;;;;;;;;;;5113669;28;20194;-85
2023/07/28 10:22:13;;;;;;;1.20;1.10;;;;;;;;;;5113326;28;20647;-85
2023/07/28 10:24:53;;;;;;;2.60;1.45;;;;;;;;;;5113612;28;20190;-85
2023/07/28 10:27:31;;;;;;;2.45;1.00;;;;;;;;;;5113623;28;20204;-85
2023/07/28 10:29:59;;;;;;;2.72;0.90;;;;;;;;;;5113453;27;20658;-85
2023/07/28 10:32:29;;;;;;;2.45;0.80;;;;;;;;;;5113688;28;20197;-85
2023/07/28 10:35:08;;;;;;;0.88;0.80;;;;;;;;;;5113110;28;20198;-85
2023/07/28 10:37:35;;;;;;;0.85;0.60;;;;;;;;;;5113331;28;20204;-85
2023/07/28 10:40:22;;;;;;;0.80;0.80;;;;;;;;;;5113431;28;20745;-86
2023/07/28 10:42:49;;;;;;;0.60;0.60;;;;;;;;;;5113173;28;20202;-85
2023/07/28 10:45:18;;;;;;;1.48;0.68;;;;;;;;;;5113374;28;20210;-84
2023/07/28 10:47:45;;;;;;;1.00;0.80;;;;;;;;;;5112876;28;20225;-85
2023/07/28 10:50:14;;;;;;;3.58;1.33;;;;;;;;;;5112916;28;20194;-85
2023/07/28 10:52:41;;;;;;;1.70;1.30;;;;;;;;;;5112722;28;20324;-85
2023/07/28 10:55:14;;;;;;;1.77;1.40;;;;;;;;;;5113398;28;20204;-84
2023/07/28 10:57:42;;;;;;;2.17;1.70;;;;;;;;;;5108937;28;20749;-88
2023/07/28 11:00:11;;;;;;;3.17;2.10;;;;;;;;;;5095920;28;20211;-90
2023/07/28 11:02:40;;;;;;;2.13;1.20;;;;;;;;;;5092268;28;20191;-84
2023/07/28 11:05:08;;;;;;;1.83;0.90;;;;;;;;;;5093095;28;20201;-85
2023/07/28 11:07:37;;;;;;;1.27;0.90;;;;;;;;;;5092207;28;20233;-84
2023/07/28 11:10:06;;;;;;;0.93;0.70;;;;;;;;;;5111371;28;20293;-83
2023/07/28 11:12:33;;;;;;;0.70;0.70;;;;;;;;;;5110097;28;20198;-83
2023/07/28 11:15:00;;;;;;;1.02;0.77;;;;;;;;;;5109676;28;20232;-82
2023/07/28 11:17:28;;;;;;;1.65;0.80;;;;;;;;;;5102841;28;20297;-82
2023/07/28 11:19:55;;;;;;;1.30;0.80;;;;;;;;;;5109853;28;20304;-82
2023/07/28 11:22:22;;;;;;;1.00;0.88;;;;;;;;;;5110658;28;20229;-83
2023/07/28 11:24:53;;;;;;;1.33;1.00;;;;;;;;;;5111455;28;20205;-82
2023/07/28 11:27:20;;;;;;;2.22;1.00;;;;;;;;;;5110806;28;20197;-82
2023/07/28 11:29:48;;;;;;;2.30;0.80;;;;;;;;;;5109052;28;20356;-83
2023/07/28 11:32:17;;;;;;;1.75;0.90;;;;;;;;;;5110837;28;20198;-81
2023/07/28 11:34:45;;;;;;;1.13;0.80;;;;;;;;;;5105831;28;20205;-82
2023/07/28 11:37:12;;;;;;;1.20;0.90;;;;;;;;;;5109110;28;20266;-82
2023/07/28 11:39:40;;;;;;;4.95;1.13;;;;;;;;;;5112285;28;20284;-82
2023/07/28 11:42:10;;;;;;;1.67;0.90;;;;;;;;;;5108803;28;20655;-82
2023/07/28 11:44:38;;;;;;;1.70;0.95;;;;;;;;;;5103677;28;20300;-80
2023/07/28 11:47:06;;;;;;;2.53;1.00;;;;;;;;;;5093026;28;20293;-82
2023/07/28 11:49:33;;;;;;;1.00;0.90;;;;;;;;;;5091293;28;20233;-81
2023/07/28 11:52:01;;;;;;;1.95;0.90;;;;;;;;;;5091674;28;20705;-81
2023/07/28 11:54:28;;;;;;;0.65;0.65;;;;;;;;;;5100184;28;20222;-82
2023/07/28 11:56:56;;;;;;;0.90;0.80;;;;;;;;;;5111709;28;20201;-82
2023/07/28 11:59:25;;;;;;;1.10;0.82;;;;;;;;;;5111044;28;20278;-81
2023/07/28 12:01:53;;;;;;;2.70;0.77;;;;;;;;;;5110642;28;20233;-82
2023/07/28 12:04:24;;;;;;;1.80;0.75;;;;;;;;;;5111710;28;20288;-83
2023/07/28 12:07:06;;;;;;;1.15;0.60;;;;;;;;;;5111403;28;20247;-81
2023/07/28 12:09:33;;;;;;;0.88;0.77;;;;;;;;;;5112208;28;20264;-82
2023/07/28 12:12:00;;;;;;;0.82;0.70;;;;;;;;;;5111793;28;20229;-82
2023/07/28 12:14:36;;;;;;;1.27;0.73;;;;;;;;;;5103270;28;20657;-80
2023/07/28 12:17:03;;;;;;;2.15;0.73;;;;;;;;;;5109377;28;20247;-83
2023/07/28 12:19:30;;;;;;;1.38;0.65;;;;;;;;;;5114961;28;20682;-83
2023/07/28 12:21:58;;;;;;;0.93;0.80;;;;;;;;;;5114726;28;20193;-82
2023/07/28 12:24:25;;;;;;;0.95;0.70;;;;;;;;;;5115567;28;20290;-84
2023/07/28 12:26:53;;;;;;;0.70;0.70;;;;;;;;;;5115397;28;20204;-83
2023/07/28 12:29:20;;;;;;;1.60;0.80;;;;;;;;;;5114057;28;20991;-82
2023/07/28 12:31:49;;;;;;;0.80;0.70;;;;;;;;;;4756676;27;9999690;-83
2023/07/28 12:34:16;;;;;;;1.60;0.80;;;;;;;;;;5119995;27;20296;-82
2023/07/28 12:36:43;;;;;;;1.17;0.80;;;;;;;;;;5121833;27;20288;-88
2023/07/28 12:39:10;;;;;;;0.68;0.68;;;;;;;;;;5115420;28;20234;-87
2023/07/28 12:41:37;;;;;;;1.85;0.80;;;;;;;;;;5114878;28;20589;-87
2023/07/28 12:44:05;;;;;;;1.75;0.90;;;;;;;;;;5115237;28;20189;-87
2023/07/28 12:46:32;;;;;;;1.35;0.80;;;;;;;;;;5111243;28;20198;-85
2023/07/28 12:49:00;;;;;;;1.35;0.80;;;;;;;;;;5098929;28;20254;-88
2023/07/28 12:51:27;;;;;;;1.65;0.90;;;;;;;;;;5113768;28;20275;-84
2023/07/28 12:53:55;;;;;;;1.52;0.82;;;;;;;;;;5115041;28;20225;-82
2023/07/28 12:56:22;;;;;;;2.38;0.88;;;;;;;;;;5115042;28;20284;-80
2023/07/28 12:58:49;;;;;;;1.65;0.80;;;;;;;;;;5113723;27;20288;-82
2023/07/28 13:01:16;;;;;;;1.00;0.90;;;;;;;;;;5114580;28;20225;-82
2023/07/28 13:03:44;;;;;;;1.00;0.90;;;;;;;;;;5114358;28;20198;-82
2023/07/28 13:06:13;;;;;;;0.88;0.82;;;;;;;;;;5114459;28;20193;-82
2023/07/28 13:08:40;;;;;;;1.55;0.70;;;;;;;;;;5113875;28;20312;-81
2023/07/28 13:11:07;;;;;;;0.98;0.90;;;;;;;;;;5113923;28;20297;-80
2023/07/28 13:13:35;;;;;;;1.75;0.80;;;;;;;;;;5114061;28;20200;-81
2023/07/28 13:16:02;;;;;;;0.80;0.80;;;;;;;;;;5113899;28;20277;-83
2023/07/28 13:18:31;;;;;;;1.35;0.93;;;;;;;;;;5114420;28;20597;-82
2023/07/28 13:20:58;;;;;;;1.75;1.00;;;;;;;;;;5112468;28;20762;-82
2023/07/28 13:23:26;;;;;;;2.67;1.17;;;;;;;;;;5113566;28;20638;-83
2023/07/28 13:25:54;;;;;;;1.95;0.82;;;;;;;;;;5113825;28;20670;-83
2023/07/28 13:28:21;;;;;;;1.30;1.10;;;;;;;;;;5114123;28;20217;-82
2023/07/28 13:30:48;;;;;;;1.75;0.93;;;;;;;;;;5114293;28;20289;-84
2023/07/28 13:33:15;;;;;;;1.15;0.90;;;;;;;;;;5114029;28;20200;-83
2023/07/28 13:35:42;;;;;;;1.95;0.90;;;;;;;;;;5113385;28;20233;-86
2023/07/28 13:38:10;;;;;;;1.63;0.93;;;;;;;;;;5113103;28;20190;-79
2023/07/28 13:40:38;;;;;;;1.85;1.00;;;;;;;;;;5113820;28;20656;-81
2023/07/28 13:43:05;;;;;;;1.67;0.90;;;;;;;;;;5113646;28;20904;-80
2023/07/28 13:45:33;;;;;;;1.00;0.90;;;;;;;;;;5108605;28;20289;-81
2023/07/28 13:48:00;;;;;;;0.90;0.70;;;;;;;;;;5108097;28;20219;-79
2023/07/28 13:50:27;;;;;;;1.55;0.90;;;;;;;;;;5093533;28;20222;-81
2023/07/28 13:52:54;;;;;;;1.02;0.93;;;;;;;;;;5099997;28;20688;-80
2023/07/28 13:55:22;;;;;;;0.90;0.85;;;;;;;;;;5106971;28;20222;-80
2023/07/28 13:57:50;;;;;;;1.35;1.00;;;;;;;;;;5093169;28;20290;-80
2023/07/28 14:00:17;;;;;;;1.27;1.00;;;;;;;;;;5095299;28;20230;-80
2023/07/28 14:02:45;;;;;;;0.93;0.85;;;;;;;;;;5112989;28;20198;-82
2023/07/28 14:05:12;;;;;;;1.08;0.80;;;;;;;;;;5098690;28;20234;-82
2023/07/28 14:07:39;;;;;;;3.05;0.88;;;;;;;;;;5113067;28;20255;-82
2023/07/28 14:10:07;;;;;;;1.58;1.00;;;;;;;;;;5113247;28;20309;-82
2023/07/28 14:12:34;;;;;;;1.10;0.80;;;;;;;;;;5110517;28;20255;-82
2023/07/28 14:15:02;;;;;;;0.95;0.80;;;;;;;;;;5102159;28;20235;-83
2023/07/28 14:17:30;;;;;;;1.00;0.90;;;;;;;;;;5110615;28;20206;-82
2023/07/28 14:19:57;;;;;;;0.85;0.82;;;;;;;;;;5112915;28;20335;-82
2023/07/28 14:22:24;;;;;;;1.55;1.17;;;;;;;;;;5112852;28;20197;-82
2023/07/28 14:24:51;;;;;;;1.10;1.00;;;;;;;;;;5113009;27;20286;-82
2023/07/28 14:27:18;;;;;;;1.00;0.90;;;;;;;;;;5112710;28;20241;-82
2023/07/28 14:29:45;;;;;;;1.20;1.10;;;;;;;;;;5117269;27;20770;-83
2023/07/28 14:32:14;;;;;;;1.80;0.90;;;;;;;;;;5133907;27;20276;-82
2023/07/28 14:34:41;;;;;;;1.10;0.90;;;;;;;;;;5127426;27;20212;-83
2023/07/28 14:37:08;;;;;;;1.23;0.77;;;;;;;;;;5117189;27;20200;-82
2023/07/28 14:39:36;;;;;;;1.30;1.20;;;;;;;;;;5128810;27;20300;-83
2023/07/28 14:42:03;;;;;;;1.23;1.08;;;;;;;;;;5101420;28;20292;-83
2023/07/28 14:44:30;;;;;;;1.75;0.90;;;;;;;;;;5112509;28;20201;-82
2023/07/28 14:46:58;;;;;;;3.88;1.08;;;;;;;;;;5118186;27;20228;-82